createdAt,value
2018-10-19T00:01:54.885Z,16.00
2018-10-19T00:04:26.277Z,16.00
2018-10-19T00:06:57.722Z,16.10
2018-10-19T00:09:29.090Z,16.10
2018-10-19T00:12:00.280Z,16.10
2018-10-19T00:14:31.744Z,16.10
2018-10-19T00:17:03.314Z,16.10
2018-10-19T00:19:34.857Z,16.10
2018-10-19T00:22:06.701Z,16.00
2018-10-19T00:24:38.197Z,16.10
2018-10-19T00:27:09.657Z,16.00
2018-10-19T00:29:41.197Z,16.00
2018-10-19T00:32:12.695Z,16.00
2018-10-19T00:34:43.979Z,16.00
2018-10-19T00:37:15.151Z,16.00
2018-10-19T00:39:46.500Z,15.90
2018-10-19T00:42:17.748Z,15.90
2018-10-19T00:44:48.942Z,15.90
2018-10-19T00:47:20.138Z,15.90
2018-10-19T00:49:51.301Z,15.90
2018-10-19T00:52:22.500Z,15.80
2018-10-19T00:54:53.703Z,15.70
2018-10-19T00:57:25.365Z,15.70
2018-10-19T00:59:56.668Z,15.80
2018-10-19T01:02:27.954Z,15.70
2018-10-19T01:04:59.302Z,15.60
2018-10-19T01:07:30.905Z,15.70
2018-10-19T01:10:02.233Z,15.70
2018-10-19T01:12:33.417Z,15.70
2018-10-19T01:15:04.825Z,15.70
2018-10-19T01:17:36.224Z,15.70
2018-10-19T01:20:07.984Z,15.60
2018-10-19T01:22:39.157Z,15.40
2018-10-19T01:25:10.364Z,15.40
2018-10-19T01:27:41.565Z,15.50
2018-10-19T01:30:12.938Z,15.40
2018-10-19T01:32:44.177Z,15.40
2018-10-19T01:35:16.244Z,15.40
2018-10-19T01:37:47.492Z,15.40
2018-10-19T01:40:19.142Z,15.30
2018-10-19T01:42:50.641Z,15.40
2018-10-19T01:45:21.873Z,15.40
2018-10-19T01:47:53.065Z,15.40
2018-10-19T01:50:24.245Z,15.40
2018-10-19T01:52:55.680Z,15.30
2018-10-19T01:55:27.025Z,15.40
2018-10-19T01:57:58.202Z,15.40
2018-10-19T02:00:29.346Z,15.40
2018-10-19T02:03:00.925Z,15.30
2018-10-19T02:05:32.414Z,15.30
2018-10-19T02:08:03.787Z,15.30
2018-10-19T02:10:35.125Z,15.30
2018-10-19T02:13:06.976Z,15.30
2018-10-19T02:15:38.531Z,15.30
2018-10-19T02:18:09.933Z,15.30
2018-10-19T02:20:42.913Z,15.30
2018-10-19T02:23:14.087Z,15.40
2018-10-19T02:25:45.451Z,15.40
2018-10-19T02:28:17.105Z,15.40
2018-10-19T02:30:48.411Z,15.40
2018-10-19T02:33:19.703Z,15.50
2018-10-19T02:35:51.186Z,15.50
2018-10-19T02:38:22.565Z,15.50
2018-10-19T02:40:53.997Z,15.40
2018-10-19T02:43:25.677Z,15.40
2018-10-19T02:45:56.926Z,15.40
2018-10-19T02:48:28.140Z,15.40
2018-10-19T02:50:59.517Z,15.40
2018-10-19T02:53:30.894Z,15.40
2018-10-19T02:56:02.583Z,15.40
2018-10-19T02:58:33.870Z,15.40
2018-10-19T03:01:05.083Z,15.30
2018-10-19T03:03:36.310Z,15.20
2018-10-19T03:06:07.505Z,15.20
2018-10-19T03:08:39.109Z,15.10
2018-10-19T03:11:10.505Z,15.00
2018-10-19T03:13:42.676Z,15.10
2018-10-19T03:16:13.992Z,15.10
2018-10-19T03:18:45.376Z,15.10
2018-10-19T03:21:16.832Z,14.90
2018-10-19T03:23:48.349Z,14.90
2018-10-19T03:26:19.710Z,14.80
2018-10-19T03:28:50.936Z,14.90
2018-10-19T03:31:22.291Z,14.80
2018-10-19T03:33:53.857Z,14.80
2018-10-19T03:36:25.745Z,14.70
2018-10-19T03:38:57.134Z,14.70
2018-10-19T03:41:28.921Z,14.70
2018-10-19T03:44:00.109Z,14.80
2018-10-19T03:46:32.252Z,14.80
2018-10-19T03:49:03.687Z,14.80
2018-10-19T03:51:35.102Z,14.80
2018-10-19T03:54:06.862Z,14.70
2018-10-19T03:56:38.174Z,14.70
2018-10-19T03:59:09.570Z,14.70
2018-10-19T04:01:40.938Z,14.70
2018-10-19T04:04:12.329Z,14.80
2018-10-19T04:06:43.708Z,14.80
2018-10-19T04:09:15.229Z,14.90
2018-10-19T04:11:46.685Z,14.80
2018-10-19T04:14:18.081Z,14.70
2018-10-19T04:16:49.529Z,14.70
2018-10-19T04:19:20.833Z,14.60
2018-10-19T04:21:52.530Z,14.60
2018-10-19T04:24:24.035Z,14.50
2018-10-19T04:26:55.741Z,14.60
2018-10-19T04:29:27.142Z,14.70
2018-10-19T04:31:58.593Z,14.70
2018-10-19T04:34:29.781Z,14.70
2018-10-19T04:37:05.262Z,14.60
2018-10-19T04:39:36.674Z,14.50
2018-10-19T04:42:08.753Z,14.50
2018-10-19T04:44:39.958Z,14.60
2018-10-19T04:47:11.719Z,14.60
2018-10-19T04:49:43.234Z,14.60
2018-10-19T04:52:14.413Z,14.60
2018-10-19T04:54:45.807Z,14.60
2018-10-19T04:57:17.296Z,14.50
2018-10-19T04:59:48.772Z,14.50
2018-10-19T05:02:20.179Z,14.50
2018-10-19T05:04:51.645Z,14.50
2018-10-19T05:07:23.121Z,14.50
2018-10-19T05:09:54.504Z,14.50
2018-10-19T05:12:25.943Z,14.40
2018-10-19T05:14:57.292Z,14.40
2018-10-19T05:17:29.177Z,14.30
2018-10-19T05:20:00.712Z,14.30
2018-10-19T05:22:32.185Z,14.30
2018-10-19T05:25:03.669Z,14.20
2018-10-19T05:27:34.854Z,14.20
2018-10-19T05:30:08.074Z,14.10
2018-10-19T05:32:39.881Z,14.20
2018-10-19T05:35:11.464Z,14.20
2018-10-19T05:37:42.888Z,14.20
2018-10-19T05:40:14.337Z,14.20
2018-10-19T05:42:45.711Z,14.20
2018-10-19T05:45:17.137Z,14.10
2018-10-19T05:47:48.518Z,14.00
2018-10-19T05:50:19.874Z,14.10
2018-10-19T05:52:51.338Z,14.00
2018-10-19T05:55:22.645Z,14.00
2018-10-19T05:57:54.041Z,14.00
2018-10-19T06:00:25.446Z,14.10
2018-10-19T06:02:56.670Z,14.20
2018-10-19T06:05:27.872Z,14.20
2018-10-19T06:07:59.233Z,14.10
2018-10-19T06:10:31.351Z,14.10
2018-10-19T06:13:02.755Z,14.00
2018-10-19T06:15:33.974Z,14.00
2018-10-19T06:18:05.421Z,14.00
2018-10-19T06:20:36.727Z,14.10
2018-10-19T06:23:08.327Z,14.20
2018-10-19T06:25:39.734Z,14.10
2018-10-19T06:28:11.086Z,14.20
2018-10-19T06:30:42.481Z,14.20
2018-10-19T06:33:13.858Z,14.30
2018-10-19T06:35:45.093Z,14.40
2018-10-19T06:38:17.235Z,14.40
2018-10-19T06:40:48.488Z,14.40
2018-10-19T06:43:19.829Z,14.40
2018-10-19T06:45:51.039Z,14.30
2018-10-19T06:48:22.404Z,14.30
2018-10-19T06:50:53.607Z,14.30
2018-10-19T06:53:24.878Z,14.30
2018-10-19T06:55:56.378Z,14.40
2018-10-19T06:58:27.737Z,14.30
2018-10-19T07:00:58.987Z,14.30
2018-10-19T07:03:30.145Z,14.40
2018-10-19T07:06:01.752Z,14.40
2018-10-19T07:08:33.111Z,14.60
2018-10-19T07:11:05.012Z,14.60
2018-10-19T07:13:36.298Z,14.50
2018-10-19T07:16:07.754Z,14.60
2018-10-19T07:18:39.529Z,14.60
2018-10-19T07:21:11.689Z,14.70
2018-10-19T07:23:43.074Z,14.70
2018-10-19T07:26:14.754Z,14.70
2018-10-19T07:28:46.205Z,14.70
2018-10-19T07:31:17.805Z,14.80
2018-10-19T07:33:49.753Z,14.90
2018-10-19T07:36:21.155Z,14.90
2018-10-19T07:38:52.988Z,15.00
2018-10-19T07:41:24.314Z,15.10
2018-10-19T07:43:55.821Z,15.10
2018-10-19T07:46:27.677Z,15.10
2018-10-19T07:48:59.094Z,15.20
2018-10-19T07:51:30.547Z,15.20
2018-10-19T07:54:02.231Z,15.30
2018-10-19T07:56:33.477Z,15.30
2018-10-19T07:59:04.708Z,15.30
2018-10-19T08:01:36.258Z,15.30
2018-10-19T08:04:07.627Z,15.50
2018-10-19T08:06:38.952Z,15.50
2018-10-19T08:09:12.129Z,15.50
2018-10-19T08:11:43.821Z,15.50
2018-10-19T08:14:15.360Z,15.60
2018-10-19T08:16:46.697Z,15.60
2018-10-19T08:19:18.078Z,15.60
2018-10-19T08:21:49.465Z,15.60
2018-10-19T08:24:20.917Z,15.60
2018-10-19T08:26:52.281Z,15.60
2018-10-19T08:29:23.647Z,15.50
2018-10-19T08:31:55.071Z,15.30
2018-10-19T08:34:26.470Z,15.30
2018-10-19T08:36:57.793Z,15.30
2018-10-19T08:39:29.212Z,15.50
2018-10-19T08:42:00.581Z,15.60
2018-10-19T08:44:32.197Z,15.80
2018-10-19T08:47:03.459Z,15.90
2018-10-19T08:49:34.949Z,15.80
2018-10-19T08:52:06.986Z,15.90
2018-10-19T08:54:38.984Z,16.00
2018-10-19T08:57:11.368Z,16.00
2018-10-19T08:59:42.684Z,16.10
2018-10-19T09:02:14.914Z,16.40
2018-10-19T09:04:46.099Z,16.60
2018-10-19T09:07:17.404Z,16.60
2018-10-19T09:09:48.646Z,16.60
2018-10-19T09:12:20.785Z,16.70
2018-10-19T09:15:00.629Z,16.50
2018-10-19T09:17:32.008Z,16.50
2018-10-19T09:20:03.456Z,16.50
2018-10-19T09:22:35.684Z,16.50
2018-10-19T09:25:07.567Z,16.60
2018-10-19T09:27:38.940Z,16.60
2018-10-19T09:30:10.405Z,16.80
2018-10-19T09:32:41.912Z,16.80
2018-10-19T09:35:13.461Z,16.90
2018-10-19T09:37:44.714Z,17.00
2018-10-19T09:40:16.240Z,17.10
2018-10-19T09:42:47.506Z,17.00
2018-10-19T09:45:18.702Z,17.10
2018-10-19T09:47:50.121Z,17.00
2018-10-19T09:50:21.631Z,17.20
2018-10-19T09:52:53.049Z,17.40
2018-10-19T09:55:39.691Z,17.50
2018-10-19T09:58:11.114Z,17.60
2018-10-19T10:00:47.424Z,17.60
2018-10-19T10:03:18.753Z,17.60
2018-10-19T10:05:50.043Z,17.60
2018-10-19T10:08:21.528Z,17.70
2018-10-19T10:10:53.021Z,17.60
2018-10-19T10:13:24.247Z,17.40
2018-10-19T10:15:55.902Z,17.40
2018-10-19T10:18:27.414Z,17.50
2018-10-19T10:20:58.738Z,17.70
2018-10-19T10:23:30.138Z,17.90
2018-10-19T10:26:01.610Z,18.00
2018-10-19T10:28:33.117Z,17.90
2018-10-19T10:31:04.392Z,17.60
2018-10-19T10:33:36.811Z,17.90
2018-10-19T10:36:08.063Z,17.90
2018-10-19T10:38:39.340Z,17.80
2018-10-19T10:41:11.066Z,17.70
2018-10-19T10:43:42.284Z,17.70
2018-10-19T10:46:13.837Z,17.90
2018-10-19T10:48:45.023Z,18.40
2018-10-19T10:51:16.655Z,18.90
2018-10-19T10:53:48.154Z,19.20
2018-10-19T10:56:19.547Z,19.10
2018-10-19T10:58:50.745Z,18.90
2018-10-19T11:01:22.151Z,19.00
2018-10-19T11:03:53.431Z,19.20
2018-10-19T11:06:25.609Z,19.10
2018-10-19T11:08:57.105Z,18.90
2018-10-19T11:11:28.458Z,18.80
2018-10-19T11:13:59.801Z,18.90
2018-10-19T11:16:31.277Z,19.50
2018-10-19T11:19:02.367Z,20.00
2018-10-19T11:21:33.820Z,20.20
2018-10-19T11:24:05.873Z,19.90
2018-10-19T11:26:37.299Z,19.80
2018-10-19T11:29:15.415Z,20.60
2018-10-19T11:31:46.556Z,20.60
2018-10-19T11:34:18.076Z,20.40
2018-10-19T11:36:49.145Z,20.20
2018-10-19T11:39:20.463Z,20.00
2018-10-19T11:41:51.742Z,20.50
2018-10-19T11:44:22.903Z,20.40
2018-10-19T11:46:54.457Z,20.30
2018-10-19T11:49:25.669Z,20.40
2018-10-19T11:51:56.685Z,20.70
2018-10-19T11:54:28.044Z,20.80
2018-10-19T11:56:59.074Z,21.10
2018-10-19T11:59:31.171Z,21.30
2018-10-19T12:02:02.603Z,21.00
2018-10-19T12:04:33.630Z,21.70
2018-10-19T12:07:04.878Z,21.90
2018-10-19T12:09:36.206Z,22.50
2018-10-19T12:12:07.676Z,22.00
2018-10-19T12:14:39.033Z,21.90
2018-10-19T12:17:10.423Z,21.40
2018-10-19T12:19:41.581Z,21.20
2018-10-19T12:22:12.924Z,21.50
2018-10-19T12:24:44.125Z,21.40
2018-10-19T12:27:15.898Z,21.10
2018-10-19T12:29:47.030Z,21.20
2018-10-19T12:32:18.514Z,21.90
2018-10-19T12:34:50.396Z,21.80
2018-10-19T12:37:21.721Z,21.70
2018-10-19T12:39:53.099Z,21.70
2018-10-19T12:42:24.421Z,21.40
2018-10-19T12:44:55.630Z,22.00
2018-10-19T12:47:39.111Z,22.00
2018-10-19T12:50:10.462Z,22.00
2018-10-19T12:52:41.801Z,22.50
2018-10-19T12:55:13.232Z,22.60
2018-10-19T12:57:44.363Z,22.90
2018-10-19T13:00:16.331Z,23.20
2018-10-19T13:02:48.704Z,23.40
2018-10-19T13:05:20.684Z,23.20
2018-10-19T13:07:51.909Z,23.00
2018-10-19T13:10:23.084Z,22.90
2018-10-19T13:12:54.344Z,22.70
2018-10-19T13:15:25.489Z,22.60
2018-10-19T13:17:57.143Z,22.60
2018-10-19T13:20:28.243Z,22.40
2018-10-19T13:22:59.467Z,22.30
2018-10-19T13:25:30.726Z,22.20
2018-10-19T13:28:02.099Z,22.20
2018-10-19T13:30:33.656Z,22.80
2018-10-19T13:33:04.825Z,22.40
2018-10-19T13:35:36.469Z,22.40
2018-10-19T13:38:07.740Z,22.40
2018-10-19T13:40:39.236Z,22.30
2018-10-19T13:43:10.680Z,22.70
2018-10-19T13:45:41.824Z,22.60
2018-10-19T13:48:12.925Z,22.60
2018-10-19T13:50:44.304Z,22.70
2018-10-19T13:53:15.826Z,22.70
2018-10-19T13:55:47.277Z,22.50
2018-10-19T13:58:18.334Z,22.40
2018-10-19T14:00:49.723Z,22.40
2018-10-19T14:03:21.066Z,22.40
2018-10-19T14:05:52.273Z,22.30
2018-10-19T14:08:23.455Z,22.40
2018-10-19T14:10:54.817Z,22.60
2018-10-19T14:13:26.547Z,22.40
2018-10-19T14:15:57.795Z,22.30
2018-10-19T14:18:29.471Z,22.00
2018-10-19T14:21:00.684Z,22.50
2018-10-19T14:23:31.791Z,22.70
2018-10-19T14:26:02.972Z,22.20
2018-10-19T14:28:34.613Z,22.20
2018-10-19T14:31:06.012Z,22.10
2018-10-19T14:33:37.431Z,22.00
2018-10-19T14:36:08.561Z,21.80
2018-10-19T14:38:39.900Z,21.80
2018-10-19T14:41:11.128Z,21.70
2018-10-19T14:43:42.812Z,21.50
2018-10-19T14:46:14.624Z,21.40
2018-10-19T14:48:45.892Z,21.20
2018-10-19T14:51:17.246Z,21.30
2018-10-19T14:53:48.424Z,21.50
2018-10-19T14:56:20.096Z,21.60
2018-10-19T14:58:51.198Z,21.90
2018-10-19T15:01:22.617Z,21.80
2018-10-19T15:03:53.788Z,21.80
2018-10-19T15:06:25.199Z,21.40
2018-10-19T15:08:56.649Z,21.30
2018-10-19T15:11:27.897Z,21.30
2018-10-19T15:13:59.026Z,21.20
2018-10-19T15:16:30.185Z,21.30
2018-10-19T15:19:01.576Z,21.20
2018-10-19T15:21:32.954Z,21.50
2018-10-19T15:24:04.335Z,21.30
2018-10-19T15:26:35.693Z,21.20
2018-10-19T15:29:07.426Z,21.30
2018-10-19T15:31:38.706Z,21.30
2018-10-19T15:34:09.882Z,21.30
2018-10-19T15:36:41.135Z,21.30
2018-10-19T15:39:13.063Z,21.30
2018-10-19T15:41:44.248Z,21.30
2018-10-19T15:44:15.687Z,21.30
2018-10-19T15:46:46.886Z,21.20
2018-10-19T15:49:19.168Z,21.10
2018-10-19T15:51:50.545Z,21.00
2018-10-19T15:54:21.792Z,21.00
2018-10-19T15:56:53.657Z,20.90
2018-10-19T15:59:25.267Z,20.80
2018-10-19T16:01:56.503Z,20.90
2018-10-19T16:04:28.229Z,20.90
2018-10-19T16:06:59.480Z,20.70
2018-10-19T16:09:31.137Z,20.60
2018-10-19T16:12:02.366Z,20.70
2018-10-19T16:14:34.084Z,20.70
2018-10-19T16:17:05.309Z,20.50
2018-10-19T16:19:36.672Z,20.40
2018-10-19T16:22:08.122Z,20.50
2018-10-19T16:24:39.424Z,20.50
2018-10-19T16:27:10.797Z,20.40
2018-10-19T16:29:42.157Z,20.30
2018-10-19T16:32:13.201Z,20.30
2018-10-19T16:34:44.674Z,20.10
2018-10-19T16:37:15.954Z,20.00
2018-10-19T16:39:47.317Z,20.00
2018-10-19T16:42:18.752Z,19.90
2018-10-19T16:44:49.918Z,19.80
2018-10-19T16:47:21.108Z,19.70
2018-10-19T16:49:52.499Z,19.60
2018-10-19T16:52:24.012Z,19.60
2018-10-19T16:54:55.295Z,19.60
2018-10-19T16:57:26.457Z,19.50
2018-10-19T16:59:57.688Z,19.50
2018-10-19T17:02:29.152Z,19.50
2018-10-19T17:05:00.343Z,19.40
2018-10-19T17:07:31.439Z,19.30
2018-10-19T17:10:02.812Z,19.30
2018-10-19T17:12:34.088Z,19.30
2018-10-19T17:15:05.397Z,19.20
2018-10-19T17:17:36.840Z,19.10
2018-10-19T17:20:08.255Z,19.00
2018-10-19T17:22:39.360Z,18.90
2018-10-19T17:25:12.167Z,18.90
2018-10-19T17:27:43.493Z,18.80
2018-10-19T17:30:15.032Z,18.80
2018-10-19T17:32:46.629Z,18.80
2018-10-19T17:35:17.920Z,18.80
2018-10-19T17:37:49.256Z,18.80
2018-10-19T17:40:20.832Z,18.80
2018-10-19T17:42:52.057Z,18.70
2018-10-19T17:45:23.218Z,18.60
2018-10-19T17:47:54.680Z,18.60
2018-10-19T17:50:25.852Z,18.70
2018-10-19T17:52:57.522Z,18.80
2018-10-19T17:55:28.795Z,18.90
2018-10-19T17:57:59.961Z,18.90
2018-10-19T18:00:31.196Z,18.90
2018-10-19T18:03:02.610Z,18.90
2018-10-19T18:05:33.988Z,18.80
2018-10-19T18:08:05.231Z,18.80
2018-10-19T18:10:36.544Z,18.80
2018-10-19T18:13:08.011Z,18.70
2018-10-19T18:15:39.592Z,18.70
2018-10-19T18:18:11.159Z,18.60
2018-10-19T18:20:42.287Z,18.50
2018-10-19T18:23:13.831Z,18.40
2018-10-19T18:25:44.848Z,18.40
2018-10-19T18:28:16.128Z,18.40
2018-10-19T18:30:47.278Z,18.40
2018-10-19T18:33:18.416Z,18.30
2018-10-19T18:35:49.940Z,18.40
2018-10-19T18:38:21.073Z,18.30
2018-10-19T18:40:52.409Z,18.30
2018-10-19T18:43:23.780Z,18.30
2018-10-19T18:45:55.189Z,18.10
2018-10-19T18:48:26.864Z,18.00
2018-10-19T18:50:57.983Z,18.10
2018-10-19T18:53:29.332Z,18.10
2018-10-19T18:56:00.616Z,18.10
2018-10-19T18:58:31.730Z,18.00
2018-10-19T19:01:03.172Z,17.80
2018-10-19T19:03:34.811Z,17.80
2018-10-19T19:06:06.836Z,17.70
2018-10-19T19:08:38.068Z,17.70
2018-10-19T19:11:09.528Z,17.70
2018-10-19T19:13:46.389Z,17.70
2018-10-19T19:16:22.352Z,17.70
2018-10-19T19:18:53.714Z,17.60
2018-10-19T19:21:25.132Z,17.60
2018-10-19T19:24:01.164Z,17.50
2018-10-19T19:26:32.584Z,17.50
2018-10-19T19:29:03.785Z,17.40
2018-10-19T19:31:34.969Z,17.60
2018-10-19T19:34:11.190Z,17.50
2018-10-19T19:36:42.416Z,17.50
2018-10-19T19:39:13.633Z,17.50
2018-10-19T19:41:49.940Z,17.40
2018-10-19T19:44:21.326Z,17.40
2018-10-19T19:46:52.592Z,17.20
2018-10-19T19:49:29.227Z,17.20
2018-10-19T19:52:00.364Z,17.10
2018-10-19T19:54:31.548Z,17.00
2018-10-19T19:57:02.961Z,17.00
2018-10-19T19:59:34.316Z,16.90
2018-10-19T20:02:05.687Z,16.90
2018-10-19T20:04:36.903Z,16.90
2018-10-19T20:07:08.233Z,17.00
2018-10-19T20:09:39.548Z,17.10
2018-10-19T20:12:10.843Z,17.00
2018-10-19T20:14:42.541Z,16.90
2018-10-19T20:17:13.911Z,16.80
2018-10-19T20:19:45.050Z,17.00
2018-10-19T20:22:16.699Z,17.00
2018-10-19T20:24:48.028Z,16.90
2018-10-19T20:27:19.240Z,16.90
2018-10-19T20:29:50.459Z,16.90
2018-10-19T20:32:21.728Z,17.00
2018-10-19T20:34:52.824Z,17.00
2018-10-19T20:37:24.179Z,17.00
2018-10-19T20:39:55.560Z,17.00
2018-10-19T20:42:26.941Z,17.00
2018-10-19T20:44:58.627Z,17.00
2018-10-19T20:47:29.812Z,17.00
2018-10-19T20:50:01.020Z,17.00
2018-10-19T20:52:32.128Z,17.00
2018-10-19T20:55:03.782Z,17.00
2018-10-19T20:57:35.072Z,17.00
2018-10-19T21:00:07.120Z,17.00
2018-10-19T21:02:38.538Z,16.90
2018-10-19T21:05:11.356Z,16.90
2018-10-19T21:08:45.704Z,16.80
2018-10-19T21:11:16.951Z,16.80
2018-10-19T21:13:48.300Z,16.90
2018-10-19T21:16:19.705Z,16.80
2018-10-19T21:18:51.173Z,16.70
2018-10-19T21:21:22.481Z,16.70
2018-10-19T21:23:53.896Z,16.80
2018-10-19T21:26:25.076Z,16.80
2018-10-19T21:28:56.475Z,16.70
2018-10-19T21:31:27.820Z,16.60
2018-10-19T21:33:59.224Z,16.50
2018-10-19T21:36:30.703Z,16.50
2018-10-19T21:39:01.846Z,16.50
2018-10-19T21:41:33.458Z,16.60
2018-10-19T21:44:04.589Z,16.60
2018-10-19T21:46:35.980Z,16.60
2018-10-19T21:49:07.991Z,16.50
2018-10-19T21:51:39.543Z,16.40
2018-10-19T21:54:10.728Z,16.30
2018-10-19T21:56:41.938Z,16.30
2018-10-19T21:59:13.342Z,16.30
2018-10-19T22:01:44.900Z,16.40
2018-10-19T22:04:16.089Z,16.40
2018-10-19T22:06:47.457Z,16.30
2018-10-19T22:09:18.852Z,16.40
2018-10-19T22:11:50.306Z,16.30
2018-10-19T22:14:21.435Z,16.30
2018-10-19T22:16:53.081Z,16.20
2018-10-19T22:19:24.594Z,16.20
2018-10-19T22:21:55.981Z,16.10
2018-10-19T22:24:27.173Z,16.10
2018-10-19T22:26:58.391Z,16.00
2018-10-19T22:29:29.737Z,16.00
2018-10-19T22:32:00.759Z,15.90
2018-10-19T22:34:32.033Z,15.90
2018-10-19T22:37:03.695Z,16.00
2018-10-19T22:39:34.908Z,16.10
2018-10-19T22:42:06.282Z,16.10
2018-10-19T22:44:37.524Z,16.20
2018-10-19T22:47:08.794Z,16.20
2018-10-19T22:49:40.412Z,16.30
2018-10-19T22:52:11.859Z,16.40
2018-10-19T22:54:43.692Z,16.40
2018-10-19T22:57:15.292Z,16.40
2018-10-19T22:59:46.439Z,16.40
2018-10-19T23:02:17.637Z,16.40
2018-10-19T23:04:48.830Z,16.40
2018-10-19T23:07:20.484Z,16.50
2018-10-19T23:09:51.581Z,16.40
2018-10-19T23:12:23.269Z,16.40
2018-10-19T23:14:54.540Z,16.40
2018-10-19T23:17:25.805Z,16.40
2018-10-19T23:19:56.952Z,16.50
2018-10-19T23:22:28.573Z,16.50
2018-10-19T23:24:59.772Z,16.50
2018-10-19T23:27:30.920Z,16.40
2018-10-19T23:30:02.340Z,16.50
2018-10-19T23:32:33.508Z,16.50
2018-10-19T23:35:05.193Z,16.50
2018-10-19T23:37:36.482Z,16.60
2018-10-19T23:40:08.437Z,16.50
2018-10-19T23:42:39.840Z,16.60
2018-10-19T23:45:11.205Z,16.60
2018-10-19T23:47:42.383Z,16.60
2018-10-19T23:50:13.785Z,16.60
2018-10-19T23:52:44.973Z,16.50
2018-10-19T23:55:16.271Z,16.50
2018-10-19T23:57:47.430Z,16.50
